sensor_id;sensor_type;location;lat;lon;timestamp;pressure;altitude;pressure_sealevel;temperature;humidity
76586;BME280;65251;51.022;13.736;2023-06-19T00:00:16;99188.00;;;17.75;63.46
76586;BME280;65251;51.022;13.736;2023-06-19T00:00:47;99180.16;;;17.74;64.17
76586;BME280;65251;51.022;13.736;2023-06-19T00:01:18;99186.13;;;17.76;62.77
76586;BME280;65251;51.022;13.736;2023-06-19T00:01:49;99181.53;;;17.76;64.05
76586;BME280;65251;51.022;13.736;2023-06-19T00:02:20;99190.44;;;17.77;63.24
76586;BME280;65251;51.022;13.736;2023-06-19T00:02:51;99188.28;;;17.79;62.88
76586;BME280;65251;51.022;13.736;2023-06-19T00:03:23;99184.00;;;17.78;62.59
76586;BME280;65251;51.022;13.736;2023-06-19T00:03:53;99182.88;;;17.79;62.35
76586;BME280;65251;51.022;13.736;2023-06-19T00:04:24;99178.59;;;17.78;63.14
76586;BME280;65251;51.022;13.736;2023-06-19T00:04:56;99188.56;;;17.77;63.53
76586;BME280;65251;51.022;13.736;2023-06-19T00:05:28;99185.88;;;17.77;63.53
76586;BME280;65251;51.022;13.736;2023-06-19T00:05:59;99190.19;;;17.78;62.97
76586;BME280;65251;51.022;13.736;2023-06-19T00:06:29;99187.50;;;17.78;62.41
76586;BME280;65251;51.022;13.736;2023-06-19T00:07:01;99185.34;;;17.80;62.88
76586;BME280;65251;51.022;13.736;2023-06-19T00:07:32;99186.41;;;17.79;62.53
76586;BME280;65251;51.022;13.736;2023-06-19T00:08:03;99181.56;;;17.81;63.07
76586;BME280;65251;51.022;13.736;2023-06-19T00:08:35;99182.38;;;17.82;62.37
76586;BME280;65251;51.022;13.736;2023-06-19T00:09:07;99182.38;;;17.82;63.44
76586;BME280;65251;51.022;13.736;2023-06-19T00:09:39;99185.09;;;17.82;63.52
76586;BME280;65251;51.022;13.736;2023-06-19T00:10:09;99183.44;;;17.81;62.86
76586;BME280;65251;51.022;13.736;2023-06-19T00:10:41;99185.34;;;17.80;63.04
76586;BME280;65251;51.022;13.736;2023-06-19T00:11:12;99189.91;;;17.80;63.44
76586;BME280;65251;51.022;13.736;2023-06-19T00:11:43;99185.34;;;17.80;63.54
76586;BME280;65251;51.022;13.736;2023-06-19T00:12:13;99184.28;;;17.81;63.58
76586;BME280;65251;51.022;13.736;2023-06-19T00:12:45;99179.94;;;17.80;63.46
76586;BME280;65251;51.022;13.736;2023-06-19T00:13:16;99184.53;;;17.80;63.44
76586;BME280;65251;51.022;13.736;2023-06-19T00:13:49;99181.00;;;17.79;62.66
76586;BME280;65251;51.022;13.736;2023-06-19T00:14:21;99175.91;;;17.78;62.49
76586;BME280;65251;51.022;13.736;2023-06-19T00:14:51;99182.63;;;17.80;62.19
76586;BME280;65251;51.022;13.736;2023-06-19T00:15:22;99177.50;;;17.79;62.72
76586;BME280;65251;51.022;13.736;2023-06-19T00:15:54;99177.25;;;17.80;62.66
76586;BME280;65251;51.022;13.736;2023-06-19T00:16:25;99182.63;;;17.80;63.62
76586;BME280;65251;51.022;13.736;2023-06-19T00:16:56;99179.13;;;17.80;62.54
76586;BME280;65251;51.022;13.736;2023-06-19T00:17:27;99169.38;;;17.74;62.71
76586;BME280;65251;51.022;13.736;2023-06-19T00:17:59;99173.75;;;17.80;63.44
76586;BME280;65251;51.022;13.736;2023-06-19T00:18:30;99181.28;;;17.78;63.19
76586;BME280;65251;51.022;13.736;2023-06-19T00:19:01;99173.75;;;17.80;62.70
76586;BME280;65251;51.022;13.736;2023-06-19T00:19:33;99175.91;;;17.78;62.69
76586;BME280;65251;51.022;13.736;2023-06-19T00:20:07;99175.09;;;17.77;63.62
76586;BME280;65251;51.022;13.736;2023-06-19T00:20:38;99174.53;;;17.75;63.83
76586;BME280;65251;51.022;13.736;2023-06-19T00:21:10;99178.03;;;17.76;63.48
76586;BME280;65251;51.022;13.736;2023-06-19T00:21:41;99173.16;;;17.73;62.60
76586;BME280;65251;51.022;13.736;2023-06-19T00:22:13;99173.16;;;17.73;63.57
76586;BME280;65251;51.022;13.736;2023-06-19T00:22:44;99176.91;;;17.72;63.28
76586;BME280;65251;51.022;13.736;2023-06-19T00:23:22;99181.72;;;17.70;63.22
76586;BME280;65251;51.022;13.736;2023-06-19T00:23:53;99176.03;;;17.66;63.60
76586;BME280;65251;51.022;13.736;2023-06-19T00:24:23;99173.66;;;17.70;62.76
76586;BME280;65251;51.022;13.736;2023-06-19T00:24:55;99166.88;;;17.67;62.83
76586;BME280;65251;51.022;13.736;2023-06-19T00:25:26;99175.22;;;17.66;64.21
76586;BME280;65251;51.022;13.736;2023-06-19T00:25:57;99172.03;;;17.69;62.99
76586;BME280;65251;51.022;13.736;2023-06-19T00:26:31;99172.53;;;17.66;63.16
76586;BME280;65251;51.022;13.736;2023-06-19T00:27:02;99181.41;;;17.66;62.66
76586;BME280;65251;51.022;13.736;2023-06-19T00:27:33;99172.19;;;17.62;63.49
76586;BME280;65251;51.022;13.736;2023-06-19T00:28:05;99185.41;;;17.64;64.00
76586;BME280;65251;51.022;13.736;2023-06-19T00:28:41;99172.78;;;17.64;63.19
76586;BME280;65251;51.022;13.736;2023-06-19T00:29:15;99170.28;;;17.63;64.20
76586;BME280;65251;51.022;13.736;2023-06-19T00:29:47;99170.28;;;17.63;63.21
76586;BME280;65251;51.022;13.736;2023-06-19T00:30:17;99170.88;;;17.65;63.10
76586;BME280;65251;51.022;13.736;2023-06-19T00:30:48;99171.09;;;17.63;63.56
76586;BME280;65251;51.022;13.736;2023-06-19T00:31:20;99173.59;;;17.65;63.82
76586;BME280;65251;51.022;13.736;2023-06-19T00:31:50;99177.09;;;17.65;63.84
76586;BME280;65251;51.022;13.736;2023-06-19T00:32:21;99167.13;;;17.66;63.44
76586;BME280;65251;51.022;13.736;2023-06-19T00:32:52;99168.19;;;17.65;63.83
76586;BME280;65251;51.022;13.736;2023-06-19T00:33:23;99172.53;;;17.66;63.64
76586;BME280;65251;51.022;13.736;2023-06-19T00:33:55;99167.94;;;17.66;63.75
76586;BME280;65251;51.022;13.736;2023-06-19T00:34:25;99173.59;;;17.65;62.63
76586;BME280;65251;51.022;13.736;2023-06-19T00:34:56;99170.88;;;17.65;63.16
76586;BME280;65251;51.022;13.736;2023-06-19T00:35:28;99165.81;;;17.68;62.81
76586;BME280;65251;51.022;13.736;2023-06-19T00:35:59;99168.75;;;17.67;63.15
76586;BME280;65251;51.022;13.736;2023-06-19T00:36:29;99170.94;;;17.70;62.58
76586;BME280;65251;51.022;13.736;2023-06-19T00:37:01;99174.47;;;17.70;62.84
76586;BME280;65251;51.022;13.736;2023-06-19T00:37:32;99171.50;;;17.72;63.74
76586;BME280;65251;51.022;13.736;2023-06-19T00:38:05;99174.47;;;17.70;62.74
76586;BME280;65251;51.022;13.736;2023-06-19T00:38:36;99168.81;;;17.72;63.64
76586;BME280;65251;51.022;13.736;2023-06-19T00:39:09;99173.16;;;17.73;62.61
76586;BME280;65251;51.022;13.736;2023-06-19T00:39:39;99174.22;;;17.72;62.98
76586;BME280;65251;51.022;13.736;2023-06-19T00:40:18;99170.69;;;17.71;63.79
76586;BME280;65251;51.022;13.736;2023-06-19T00:40:50;99170.94;;;17.70;63.15
76586;BME280;65251;51.022;13.736;2023-06-19T00:41:21;99175.28;;;17.71;63.98
76586;BME280;65251;51.022;13.736;2023-06-19T00:41:53;99169.88;;;17.71;63.76
76586;BME280;65251;51.022;13.736;2023-06-19T00:42:23;99166.88;;;17.67;63.88
76586;BME280;65251;51.022;13.736;2023-06-19T00:42:54;99172.59;;;17.71;62.80
76586;BME280;65251;51.022;13.736;2023-06-19T00:43:26;99171.78;;;17.70;63.54
76586;BME280;65251;51.022;13.736;2023-06-19T00:43:57;99170.69;;;17.71;63.67
76586;BME280;65251;51.022;13.736;2023-06-19T00:44:29;99175.84;;;17.73;62.78
76586;BME280;65251;51.022;13.736;2023-06-19T00:45:01;99165.06;;;17.73;63.12
76586;BME280;65251;51.022;13.736;2023-06-19T00:45:32;99171.25;;;17.73;63.31
76586;BME280;65251;51.022;13.736;2023-06-19T00:46:03;99171.84;;;17.75;63.64
76586;BME280;65251;51.022;13.736;2023-06-19T00:46:37;99176.16;;;17.76;63.56
76586;BME280;65251;51.022;13.736;2023-06-19T00:47:10;99171.00;;;17.75;62.88
76586;BME280;65251;51.022;13.736;2023-06-19T00:47:41;99169.38;;;17.74;63.95
76586;BME280;65251;51.022;13.736;2023-06-19T00:48:13;99171.84;;;17.75;63.17
76586;BME280;65251;51.022;13.736;2023-06-19T00:48:44;99172.09;;;17.74;62.94
76586;BME280;65251;51.022;13.736;2023-06-19T00:49:15;99168.56;;;17.73;64.13
76586;BME280;65251;51.022;13.736;2023-06-19T00:49:46;99171.84;;;17.75;64.18
76586;BME280;65251;51.022;13.736;2023-06-19T00:50:18;99172.09;;;17.74;64.15
76586;BME280;65251;51.022;13.736;2023-06-19T00:50:49;99171.25;;;17.73;64.33
76586;BME280;65251;51.022;13.736;2023-06-19T00:51:20;99169.38;;;17.74;63.57
76586;BME280;65251;51.022;13.736;2023-06-19T00:51:52;99169.63;;;17.72;63.79
76586;BME280;65251;51.022;13.736;2023-06-19T00:52:23;99163.69;;;17.70;62.97
76586;BME280;65251;51.022;13.736;2023-06-19T00:52:54;99169.88;;;17.71;64.22
76586;BME280;65251;51.022;13.736;2023-06-19T00:53:26;99170.38;;;17.68;63.28
76586;BME280;65251;51.022;13.736;2023-06-19T00:53:57;99167.44;;;17.69;63.48
76586;BME280;65251;51.022;13.736;2023-06-19T00:54:30;99164.19;;;17.67;64.28
76586;BME280;65251;51.022;13.736;2023-06-19T00:55:04;99171.22;;;17.68;63.51
76586;BME280;65251;51.022;13.736;2023-06-19T00:55:35;99175.28;;;17.71;64.67
76586;BME280;65251;51.022;13.736;2023-06-19T00:56:06;99172.84;;;17.69;64.96
76586;BME280;65251;51.022;13.736;2023-06-19T00:56:39;99168.25;;;17.70;63.85
76586;BME280;65251;51.022;13.736;2023-06-19T00:57:10;99165.25;;;17.66;65.08
76586;BME280;65251;51.022;13.736;2023-06-19T00:57:42;99162.81;;;17.65;65.07
76586;BME280;65251;51.022;13.736;2023-06-19T00:58:15;99160.84;;;17.60;64.07
76586;BME280;65251;51.022;13.736;2023-06-19T00:58:46;99172.69;;;17.59;64.55
76586;BME280;65251;51.022;13.736;2023-06-19T00:59:18;99163.78;;;17.58;64.13
76586;BME280;65251;51.022;13.736;2023-06-19T00:59:52;99171.56;;;17.55;64.97
76586;BME280;65251;51.022;13.736;2023-06-19T01:00:23;99174.28;;;17.55;65.44
76586;BME280;65251;51.022;13.736;2023-06-19T01:00:54;99169.13;;;17.53;64.18
76586;BME280;65251;51.022;13.736;2023-06-19T01:01:26;99172.88;;;17.52;64.88
76586;BME280;65251;51.022;13.736;2023-06-19T01:01:58;99170.44;;;17.51;64.03
76586;BME280;65251;51.022;13.736;2023-06-19T01:02:30;99164.50;;;17.49;64.27
76586;BME280;65251;51.022;13.736;2023-06-19T01:03:01;99166.38;;;17.48;64.03
76586;BME280;65251;51.022;13.736;2023-06-19T01:03:32;99174.97;;;17.45;65.59
76586;BME280;65251;51.022;13.736;2023-06-19T01:04:04;99167.13;;;17.44;65.93
76586;BME280;65251;51.022;13.736;2023-06-19T01:04:35;99168.44;;;17.41;65.89
76586;BME280;65251;51.022;13.736;2023-06-19T01:05:05;99165.75;;;17.41;65.38
76586;BME280;65251;51.022;13.736;2023-06-19T01:05:37;99162.19;;;17.36;66.13
76586;BME280;65251;51.022;13.736;2023-06-19T01:06:13;99166.53;;;17.37;65.84
76586;BME280;65251;51.022;13.736;2023-06-19T01:06:52;99162.44;;;17.34;65.82
76586;BME280;65251;51.022;13.736;2023-06-19T01:07:43;99164.31;;;17.34;65.16
76586;BME280;65251;51.022;13.736;2023-06-19T01:08:41;99165.88;;;17.30;66.35
76586;BME280;65251;51.022;13.736;2023-06-19T01:09:16;99166.63;;;17.25;65.60
76586;BME280;65251;51.022;13.736;2023-06-19T01:09:52;99165.25;;;17.22;67.14
76586;BME280;65251;51.022;13.736;2023-06-19T01:10:28;99166.31;;;17.21;67.61
76586;BME280;65251;51.022;13.736;2023-06-19T01:11:01;99166.56;;;17.20;67.06
76586;BME280;65251;51.022;13.736;2023-06-19T01:11:40;99162.19;;;17.14;66.95
76586;BME280;65251;51.022;13.736;2023-06-19T01:12:16;99169.47;;;17.13;67.28
76586;BME280;65251;51.022;13.736;2023-06-19T01:12:55;99165.63;;;17.09;68.36
76586;BME280;65251;51.022;13.736;2023-06-19T01:13:36;99170.69;;;17.06;67.24
76586;BME280;65251;51.022;13.736;2023-06-19T01:14:13;99168.25;;;17.04;68.33
76586;BME280;65251;51.022;13.736;2023-06-19T01:14:53;99169.00;;;17.00;67.14
76586;BME280;65251;51.022;13.736;2023-06-19T01:15:26;99163.59;;;17.00;68.35
76586;BME280;65251;51.022;13.736;2023-06-19T01:15:58;99168.44;;;16.98;67.09
76586;BME280;65251;51.022;13.736;2023-06-19T01:16:30;99168.69;;;16.96;68.31
76586;BME280;65251;51.022;13.736;2023-06-19T01:17:03;99160.06;;;16.94;68.02
76586;BME280;65251;51.022;13.736;2023-06-19T01:17:35;99170.25;;;16.92;68.09
76586;BME280;65251;51.022;13.736;2023-06-19T01:18:07;99167.56;;;16.92;68.83
76586;BME280;65251;51.022;13.736;2023-06-19T01:18:40;99172.38;;;16.90;68.02
76586;BME280;65251;51.022;13.736;2023-06-19T01:19:16;99168.28;;;16.87;68.02
76586;BME280;65251;51.022;13.736;2023-06-19T01:19:48;99165.59;;;16.87;69.16
76586;BME280;65251;51.022;13.736;2023-06-19T01:20:21;99166.66;;;16.86;67.89
76586;BME280;65251;51.022;13.736;2023-06-19T01:20:51;99170.41;;;16.85;68.60
76586;BME280;65251;51.022;13.736;2023-06-19T01:21:22;99166.66;;;16.86;68.49
76586;BME280;65251;51.022;13.736;2023-06-19T01:21:54;99161.78;;;16.83;68.82
76586;BME280;65251;51.022;13.736;2023-06-19T01:22:27;99163.91;;;16.81;68.64
76586;BME280;65251;51.022;13.736;2023-06-19T01:23:06;99166.59;;;16.81;70.01
76586;BME280;65251;51.022;13.736;2023-06-19T01:23:37;99167.66;;;16.80;68.27
76586;BME280;65251;51.022;13.736;2023-06-19T01:24:08;99172.50;;;16.78;68.60
76586;BME280;65251;51.022;13.736;2023-06-19T01:24:39;99151.75;;;16.79;68.93
76586;BME280;65251;51.022;13.736;2023-06-19T01:25:11;99160.91;;;16.78;70.25
76586;BME280;65251;51.022;13.736;2023-06-19T01:25:44;99162.78;;;16.77;69.37
76586;BME280;65251;51.022;13.736;2023-06-19T01:26:17;99164.41;;;16.78;69.56
76586;BME280;65251;51.022;13.736;2023-06-19T01:26:48;99159.28;;;16.77;69.84
76586;BME280;65251;51.022;13.736;2023-06-19T01:27:20;99164.66;;;16.77;68.81
76586;BME280;65251;51.022;13.736;2023-06-19T01:27:52;99164.09;;;16.75;69.65
76586;BME280;65251;51.022;13.736;2023-06-19T01:28:23;99153.31;;;16.75;69.84
76586;BME280;65251;51.022;13.736;2023-06-19T01:28:56;99156.50;;;16.72;69.87
76586;BME280;65251;51.022;13.736;2023-06-19T01:29:27;99159.44;;;16.70;68.80
76586;BME280;65251;51.022;13.736;2023-06-19T01:29:59;99154.56;;;16.67;70.52
76586;BME280;65251;51.022;13.736;2023-06-19T01:30:32;99148.94;;;16.69;70.86
76586;BME280;65251;51.022;13.736;2023-06-19T01:31:09;99150.00;;;16.68;70.80
76586;BME280;65251;51.022;13.736;2023-06-19T01:31:49;99144.84;;;16.66;70.63
76586;BME280;65251;51.022;13.736;2023-06-19T01:32:28;99153.97;;;16.65;69.57
76586;BME280;65251;51.022;13.736;2023-06-19T01:33:06;99152.00;;;16.61;70.35
76586;BME280;65251;51.022;13.736;2023-06-19T01:33:42;99153.31;;;16.58;70.89
76586;BME280;65251;51.022;13.736;2023-06-19T01:34:17;99146.84;;;16.59;71.35
76586;BME280;65251;51.022;13.736;2023-06-19T01:34:52;99152.50;;;16.58;70.47
76586;BME280;65251;51.022;13.736;2023-06-19T01:35:28;99151.38;;;16.53;69.69
76586;BME280;65251;51.022;13.736;2023-06-19T01:36:01;99152.75;;;16.56;69.36
76586;BME280;65251;51.022;13.736;2023-06-19T01:36:35;99156.25;;;16.57;70.57
76586;BME280;65251;51.022;13.736;2023-06-19T01:37:07;99152.75;;;16.56;70.00
76586;BME280;65251;51.022;13.736;2023-06-19T01:37:44;99148.19;;;16.57;69.46
76586;BME280;65251;51.022;13.736;2023-06-19T01:38:17;99149.50;;;16.54;71.14
76586;BME280;65251;51.022;13.736;2023-06-19T01:38:51;99150.88;;;16.57;69.78
76586;BME280;65251;51.022;13.736;2023-06-19T01:39:23;99145.75;;;16.55;69.65
76586;BME280;65251;51.022;13.736;2023-06-19T01:39:57;99151.13;;;16.55;69.35
76586;BME280;65251;51.022;13.736;2023-06-19T01:40:30;99148.69;;;16.53;70.58
76586;BME280;65251;51.022;13.736;2023-06-19T01:41:04;99148.44;;;16.55;70.81
76586;BME280;65251;51.022;13.736;2023-06-19T01:41:38;99144.13;;;16.54;69.39
76586;BME280;65251;51.022;13.736;2023-06-19T01:42:13;99149.50;;;16.54;69.32
76586;BME280;65251;51.022;13.736;2023-06-19T01:42:43;99147.88;;;16.53;70.13
76586;BME280;65251;51.022;13.736;2023-06-19T01:43:15;99149.50;;;16.54;69.47
76586;BME280;65251;51.022;13.736;2023-06-19T01:43:49;99140.59;;;16.53;69.39
76586;BME280;65251;51.022;13.736;2023-06-19T01:44:21;99153.00;;;16.54;69.52
76586;BME280;65251;51.022;13.736;2023-06-19T01:44:52;99148.69;;;16.53;69.21
76586;BME280;65251;51.022;13.736;2023-06-19T01:45:25;99144.13;;;16.54;70.50
76586;BME280;65251;51.022;13.736;2023-06-19T01:45:56;99147.88;;;16.53;69.78
76586;BME280;65251;51.022;13.736;2023-06-19T01:46:27;99145.19;;;16.53;69.12
76586;BME280;65251;51.022;13.736;2023-06-19T01:46:59;99139.78;;;16.53;69.32
76586;BME280;65251;51.022;13.736;2023-06-19T01:47:30;99141.44;;;16.54;70.43
76586;BME280;65251;51.022;13.736;2023-06-19T01:48:00;99145.19;;;16.53;70.32
76586;BME280;65251;51.022;13.736;2023-06-19T01:48:32;99139.78;;;16.53;70.13
76586;BME280;65251;51.022;13.736;2023-06-19T01:49:06;99138.72;;;16.54;70.84
76586;BME280;65251;51.022;13.736;2023-06-19T01:49:38;99145.41;;;16.51;69.59
76586;BME280;65251;51.022;13.736;2023-06-19T01:50:10;99130.59;;;16.49;69.83
76586;BME280;65251;51.022;13.736;2023-06-19T01:50:41;99137.34;;;16.51;69.90
76586;BME280;65251;51.022;13.736;2023-06-19T01:51:16;99148.09;;;16.51;69.36
76586;BME280;65251;51.022;13.736;2023-06-19T01:51:48;99126.19;;;16.43;70.43
76586;BME280;65251;51.022;13.736;2023-06-19T01:52:18;99141.09;;;16.50;70.14
76586;BME280;65251;51.022;13.736;2023-06-19T01:52:51;99138.41;;;16.50;70.00
76586;BME280;65251;51.022;13.736;2023-06-19T01:53:23;99138.66;;;16.49;70.39
76586;BME280;65251;51.022;13.736;2023-06-19T01:53:53;99135.97;;;16.49;69.86
76586;BME280;65251;51.022;13.736;2023-06-19T01:54:24;99140.28;;;16.50;70.60
76586;BME280;65251;51.022;13.736;2023-06-19T01:54:56;99139.47;;;16.49;69.70
76586;BME280;65251;51.022;13.736;2023-06-19T01:55:27;99140.28;;;16.50;69.78
76586;BME280;65251;51.022;13.736;2023-06-19T01:55:58;99139.47;;;16.49;70.33
76586;BME280;65251;51.022;13.736;2023-06-19T01:56:30;99139.47;;;16.49;69.34
76586;BME280;65251;51.022;13.736;2023-06-19T01:57:01;99133.28;;;16.49;69.36
76586;BME280;65251;51.022;13.736;2023-06-19T01:57:33;99137.59;;;16.50;69.26
76586;BME280;65251;51.022;13.736;2023-06-19T01:58:06;99139.72;;;16.48;70.23
76586;BME280;65251;51.022;13.736;2023-06-19T01:58:37;99131.66;;;16.48;70.97
76586;BME280;65251;51.022;13.736;2023-06-19T01:59:08;99136.78;;;16.49;71.01
76586;BME280;65251;51.022;13.736;2023-06-19T01:59:40;99133.75;;;16.46;70.88
76586;BME280;65251;51.022;13.736;2023-06-19T02:00:11;99134.09;;;16.49;69.51
76586;BME280;65251;51.022;13.736;2023-06-19T02:00:42;99130.59;;;16.49;69.87
76586;BME280;65251;51.022;13.736;2023-06-19T02:01:13;99128.72;;;16.49;69.64
76586;BME280;65251;51.022;13.736;2023-06-19T02:01:45;99126.03;;;16.49;69.16
76586;BME280;65251;51.022;13.736;2023-06-19T02:02:16;99134.91;;;16.50;69.77
76586;BME280;65251;51.022;13.736;2023-06-19T02:02:47;99133.03;;;16.50;70.52
76586;BME280;65251;51.022;13.736;2023-06-19T02:03:18;99131.16;;;16.51;69.92
76586;BME280;65251;51.022;13.736;2023-06-19T02:03:49;99132.22;;;16.50;71.16
76586;BME280;65251;51.022;13.736;2023-06-19T02:04:20;99126.03;;;16.49;71.14
76586;BME280;65251;51.022;13.736;2023-06-19T02:04:51;99131.16;;;16.51;69.93
76586;BME280;65251;51.022;13.736;2023-06-19T02:05:22;99125.78;;;16.51;71.22
76586;BME280;65251;51.022;13.736;2023-06-19T02:05:53;99131.41;;;16.49;69.62
76586;BME280;65251;51.022;13.736;2023-06-19T02:06:25;99130.34;;;16.50;71.06
76586;BME280;65251;51.022;13.736;2023-06-19T02:06:56;99127.66;;;16.50;69.41
76586;BME280;65251;51.022;13.736;2023-06-19T02:07:27;99124.38;;;16.48;70.00
76586;BME280;65251;51.022;13.736;2023-06-19T02:08:00;99132.22;;;16.50;69.87
76586;BME280;65251;51.022;13.736;2023-06-19T02:08:30;99129.53;;;16.50;69.40
76586;BME280;65251;51.022;13.736;2023-06-19T02:09:01;99124.38;;;16.48;69.99
76586;BME280;65251;51.022;13.736;2023-06-19T02:09:33;99122.28;;;16.50;70.38
76586;BME280;65251;51.022;13.736;2023-06-19T02:10:05;99121.69;;;16.48;70.03
76586;BME280;65251;51.022;13.736;2023-06-19T02:10:36;99126.59;;;16.51;70.95
76586;BME280;65251;51.022;13.736;2023-06-19T02:11:06;99123.09;;;16.51;70.02
76586;BME280;65251;51.022;13.736;2023-06-19T02:11:38;99123.66;;;16.53;70.52
76586;BME280;65251;51.022;13.736;2023-06-19T02:12:09;99121.78;;;16.53;69.75
76586;BME280;65251;51.022;13.736;2023-06-19T02:12:40;99121.53;;;16.55;69.36
76586;BME280;65251;51.022;13.736;2023-06-19T02:13:12;99112.09;;;16.52;70.43
76586;BME280;65251;51.022;13.736;2023-06-19T02:13:42;99126.34;;;16.53;70.43
76586;BME280;65251;51.022;13.736;2023-06-19T02:14:13;99111.19;;;16.47;70.18
76586;BME280;65251;51.022;13.736;2023-06-19T02:14:44;99123.66;;;16.53;70.25
76586;BME280;65251;51.022;13.736;2023-06-19T02:15:16;99119.09;;;16.53;69.37
76586;BME280;65251;51.022;13.736;2023-06-19T02:15:46;99119.91;;;16.54;69.99
76586;BME280;65251;51.022;13.736;2023-06-19T02:16:17;99122.59;;;16.54;69.74
76586;BME280;65251;51.022;13.736;2023-06-19T02:16:49;99121.78;;;16.53;70.31
76586;BME280;65251;51.022;13.736;2023-06-19T02:17:20;99120.16;;;16.52;69.50
76586;BME280;65251;51.022;13.736;2023-06-19T02:17:50;99122.03;;;16.52;70.60
76586;BME280;65251;51.022;13.736;2023-06-19T02:18:25;99110.22;;;16.53;70.88
76586;BME280;65251;51.022;13.736;2023-06-19T02:18:56;99119.59;;;16.50;69.45
76586;BME280;65251;51.022;13.736;2023-06-19T02:19:27;99123.91;;;16.51;70.95
76586;BME280;65251;51.022;13.736;2023-06-19T02:19:58;99117.72;;;16.51;70.96
76586;BME280;65251;51.022;13.736;2023-06-19T02:20:30;99120.41;;;16.51;69.94
76586;BME280;65251;51.022;13.736;2023-06-19T02:21:01;99115.03;;;16.51;70.04
76586;BME280;65251;51.022;13.736;2023-06-19T02:21:32;99113.97;;;16.52;70.07
76586;BME280;65251;51.022;13.736;2023-06-19T02:22:04;99110.44;;;16.51;69.40
76586;BME280;65251;51.022;13.736;2023-06-19T02:22:35;99110.44;;;16.51;70.90
76586;BME280;65251;51.022;13.736;2023-06-19T02:23:07;99112.91;;;16.53;70.78
76586;BME280;65251;51.022;13.736;2023-06-19T02:23:37;99119.91;;;16.54;69.07
76586;BME280;65251;51.022;13.736;2023-06-19T02:24:09;99123.66;;;16.53;70.72
76586;BME280;65251;51.022;13.736;2023-06-19T02:24:40;99116.66;;;16.52;69.75
76586;BME280;65251;51.022;13.736;2023-06-19T02:25:11;99120.16;;;16.52;69.12
76586;BME280;65251;51.022;13.736;2023-06-19T02:25:41;99119.34;;;16.52;70.94
76586;BME280;65251;51.022;13.736;2023-06-19T02:26:13;99111.75;;;16.49;70.17
76586;BME280;65251;51.022;13.736;2023-06-19T02:26:44;99119.59;;;16.50;69.82
76586;BME280;65251;51.022;13.736;2023-06-19T02:27:15;99114.44;;;16.49;69.42
76586;BME280;65251;51.022;13.736;2023-06-19T02:27:46;99118.19;;;16.48;70.43
76586;BME280;65251;51.022;13.736;2023-06-19T02:28:18;99112.56;;;16.49;70.25
76586;BME280;65251;51.022;13.736;2023-06-19T02:28:49;99117.94;;;16.49;70.69
76586;BME280;65251;51.022;13.736;2023-06-19T02:29:20;99116.31;;;16.48;69.28
76586;BME280;65251;51.022;13.736;2023-06-19T02:29:52;99120.63;;;16.49;69.49
76586;BME280;65251;51.022;13.736;2023-06-19T02:30:22;99124.16;;;16.50;70.19
76586;BME280;65251;51.022;13.736;2023-06-19T02:30:54;99115.25;;;16.49;69.26
76586;BME280;65251;51.022;13.736;2023-06-19T02:31:26;99116.06;;;16.50;70.21
76586;BME280;65251;51.022;13.736;2023-06-19T02:31:57;99099.53;;;16.41;70.36
76586;BME280;65251;51.022;13.736;2023-06-19T02:32:27;99116.66;;;16.52;69.86
76586;BME280;65251;51.022;13.736;2023-06-19T02:32:58;99122.84;;;16.52;69.27
76586;BME280;65251;51.022;13.736;2023-06-19T02:33:30;99113.72;;;16.53;70.13
76586;BME280;65251;51.022;13.736;2023-06-19T02:34:00;99118.28;;;16.53;69.16
76586;BME280;65251;51.022;13.736;2023-06-19T02:34:31;99122.84;;;16.52;69.31
76586;BME280;65251;51.022;13.736;2023-06-19T02:35:05;99116.66;;;16.52;69.88
76586;BME280;65251;51.022;13.736;2023-06-19T02:35:38;99112.09;;;16.52;70.32
76586;BME280;65251;51.022;13.736;2023-06-19T02:36:12;99111.28;;;16.52;69.02
76586;BME280;65251;51.022;13.736;2023-06-19T02:36:43;99117.72;;;16.51;70.19
76586;BME280;65251;51.022;13.736;2023-06-19T02:37:17;99109.41;;;16.52;70.58
76586;BME280;65251;51.022;13.736;2023-06-19T02:37:48;99111.28;;;16.52;68.84
76586;BME280;65251;51.022;13.736;2023-06-19T02:38:20;99107.75;;;16.51;69.42
76586;BME280;65251;51.022;13.736;2023-06-19T02:38:52;99106.13;;;16.50;70.31
76586;BME280;65251;51.022;13.736;2023-06-19T02:39:23;99108.00;;;16.50;70.79
76586;BME280;65251;51.022;13.736;2023-06-19T02:39:54;99120.63;;;16.49;70.54
76586;BME280;65251;51.022;13.736;2023-06-19T02:40:24;99110.94;;;16.48;70.58
76586;BME280;65251;51.022;13.736;2023-06-19T02:40:56;99110.94;;;16.48;70.76
76586;BME280;65251;51.022;13.736;2023-06-19T02:41:27;99112.81;;;16.48;69.25
76586;BME280;65251;51.022;13.736;2023-06-19T02:41:58;99112.25;;;16.46;70.35
76586;BME280;65251;51.022;13.736;2023-06-19T02:42:30;99114.13;;;16.45;69.62
76586;BME280;65251;51.022;13.736;2023-06-19T02:43:01;99108.75;;;16.45;70.85
76586;BME280;65251;51.022;13.736;2023-06-19T02:43:32;99110.63;;;16.45;70.99
76586;BME280;65251;51.022;13.736;2023-06-19T02:44:03;99111.44;;;16.45;70.25
76586;BME280;65251;51.022;13.736;2023-06-19T02:44:34;99107.13;;;16.44;70.63
76586;BME280;65251;51.022;13.736;2023-06-19T02:45:06;99107.94;;;16.45;71.27
76586;BME280;65251;51.022;13.736;2023-06-19T02:45:37;99106.53;;;16.42;69.76
76586;BME280;65251;51.022;13.736;2023-06-19T02:46:08;99109.22;;;16.42;70.96
76586;BME280;65251;51.022;13.736;2023-06-19T02:46:39;99101.41;;;16.41;70.21
76586;BME280;65251;51.022;13.736;2023-06-19T02:47:11;99108.66;;;16.40;70.15
76586;BME280;65251;51.022;13.736;2023-06-19T02:47:41;99111.09;;;16.42;70.84
76586;BME280;65251;51.022;13.736;2023-06-19T02:48:12;99105.72;;;16.42;69.70